sensor_id;sensor_type;location;lat;lon;timestamp;P1;durP1;ratioP1;P2;durP2;ratioP2
41643;SDS011;44236;48.098;11.582;2023-04-15T00:00:36;2.30;;;1.30;;
41643;SDS011;44236;48.098;11.582;2023-04-15T00:03:02;3.97;;;1.85;;
41643;SDS011;44236;48.098;11.582;2023-04-15T00:05:29;2.85;;;1.52;;
41643;SDS011;44236;48.098;11.582;2023-04-15T00:07:55;2.60;;;1.20;;
41643;SDS011;44236;48.098;11.582;2023-04-15T00:10:21;2.65;;;1.48;;
41643;SDS011;44236;48.098;11.582;2023-04-15T00:12:47;3.15;;;1.20;;
41643;SDS011;44236;48.098;11.582;2023-04-15T00:15:13;3.75;;;1.60;;
41643;SDS011;44236;48.098;11.582;2023-04-15T00:17:39;2.80;;;1.60;;
41643;SDS011;44236;48.098;11.582;2023-04-15T00:20:05;3.92;;;1.45;;
41643;SDS011;44236;48.098;11.582;2023-04-15T00:22:31;2.38;;;1.10;;
41643;SDS011;44236;48.098;11.582;2023-04-15T00:24:57;10.80;;;1.63;;
41643;SDS011;44236;48.098;11.582;2023-04-15T00:27:22;2.67;;;1.50;;
41643;SDS011;44236;48.098;11.582;2023-04-15T00:29:48;2.40;;;1.35;;
41643;SDS011;44236;48.098;11.582;2023-04-15T00:32:13;3.35;;;1.48;;
41643;SDS011;44236;48.098;11.582;2023-04-15T00:34:39;4.03;;;1.92;;
41643;SDS011;44236;48.098;11.582;2023-04-15T00:37:06;3.20;;;1.83;;
41643;SDS011;44236;48.098;11.582;2023-04-15T00:39:31;3.97;;;1.60;;
41643;SDS011;44236;48.098;11.582;2023-04-15T00:41:57;3.22;;;1.30;;
41643;SDS011;44236;48.098;11.582;2023-04-15T00:44:22;3.25;;;1.60;;
41643;SDS011;44236;48.098;11.582;2023-04-15T00:46:49;2.72;;;1.38;;
41643;SDS011;44236;48.098;11.582;2023-04-15T00:49:16;3.40;;;1.80;;
41643;SDS011;44236;48.098;11.582;2023-04-15T00:51:43;3.30;;;1.50;;
41643;SDS011;44236;48.098;11.582;2023-04-15T00:54:09;2.15;;;1.45;;
41643;SDS011;44236;48.098;11.582;2023-04-15T00:56:35;4.10;;;1.73;;
41643;SDS011;44236;48.098;11.582;2023-04-15T00:59:02;8.50;;;1.90;;
41643;SDS011;44236;48.098;11.582;2023-04-15T01:01:28;2.83;;;1.50;;
41643;SDS011;44236;48.098;11.582;2023-04-15T01:03:55;2.67;;;1.48;;
41643;SDS011;44236;48.098;11.582;2023-04-15T01:06:22;2.83;;;1.58;;
41643;SDS011;44236;48.098;11.582;2023-04-15T01:08:48;3.95;;;1.70;;
41643;SDS011;44236;48.098;11.582;2023-04-15T01:11:14;5.10;;;1.60;;
41643;SDS011;44236;48.098;11.582;2023-04-15T01:13:41;4.53;;;1.80;;
41643;SDS011;44236;48.098;11.582;2023-04-15T01:16:07;2.63;;;1.45;;
41643;SDS011;44236;48.098;11.582;2023-04-15T01:18:34;2.72;;;1.60;;
41643;SDS011;44236;48.098;11.582;2023-04-15T01:21:01;3.38;;;1.42;;
41643;SDS011;44236;48.098;11.582;2023-04-15T01:23:28;3.28;;;1.83;;
41643;SDS011;44236;48.098;11.582;2023-04-15T01:25:54;2.60;;;1.45;;
41643;SDS011;44236;48.098;11.582;2023-04-15T01:28:20;3.08;;;1.65;;
41643;SDS011;44236;48.098;11.582;2023-04-15T01:30:46;3.17;;;1.50;;
41643;SDS011;44236;48.098;11.582;2023-04-15T01:33:12;1.80;;;1.30;;
41643;SDS011;44236;48.098;11.582;2023-04-15T01:35:38;4.63;;;1.73;;
41643;SDS011;44236;48.098;11.582;2023-04-15T01:38:07;3.33;;;1.77;;
41643;SDS011;44236;48.098;11.582;2023-04-15T01:40:34;2.75;;;1.33;;
41643;SDS011;44236;48.098;11.582;2023-04-15T01:43:02;4.25;;;2.28;;
41643;SDS011;44236;48.098;11.582;2023-04-15T01:45:28;3.08;;;1.45;;
41643;SDS011;44236;48.098;11.582;2023-04-15T01:47:54;3.15;;;1.30;;
41643;SDS011;44236;48.098;11.582;2023-04-15T01:50:19;2.30;;;1.40;;
41643;SDS011;44236;48.098;11.582;2023-04-15T01:52:45;1.50;;;1.10;;
41643;SDS011;44236;48.098;11.582;2023-04-15T01:55:12;4.95;;;1.67;;
41643;SDS011;44236;48.098;11.582;2023-04-15T01:57:38;2.55;;;1.38;;
41643;SDS011;44236;48.098;11.582;2023-04-15T02:00:05;3.45;;;1.38;;
41643;SDS011;44236;48.098;11.582;2023-04-15T02:02:33;3.08;;;1.40;;
41643;SDS011;44236;48.098;11.582;2023-04-15T02:04:59;2.38;;;1.42;;
41643;SDS011;44236;48.098;11.582;2023-04-15T02:07:25;3.70;;;1.48;;
41643;SDS011;44236;48.098;11.582;2023-04-15T02:09:52;3.50;;;1.35;;
41643;SDS011;44236;48.098;11.582;2023-04-15T02:12:18;2.55;;;1.30;;
41643;SDS011;44236;48.098;11.582;2023-04-15T02:14:44;1.80;;;1.20;;
41643;SDS011;44236;48.098;11.582;2023-04-15T02:17:09;2.35;;;1.05;;
41643;SDS011;44236;48.098;11.582;2023-04-15T02:19:35;2.75;;;1.30;;
41643;SDS011;44236;48.098;11.582;2023-04-15T02:22:01;2.50;;;1.48;;
41643;SDS011;44236;48.098;11.582;2023-04-15T02:24:28;2.17;;;1.17;;
41643;SDS011;44236;48.098;11.582;2023-04-15T02:26:55;2.28;;;1.33;;
41643;SDS011;44236;48.098;11.582;2023-04-15T02:29:20;3.20;;;1.30;;
41643;SDS011;44236;48.098;11.582;2023-04-15T02:31:55;2.58;;;1.52;;
41643;SDS011;44236;48.098;11.582;2023-04-15T02:34:23;2.63;;;1.38;;
41643;SDS011;44236;48.098;11.582;2023-04-15T02:36:51;3.22;;;1.42;;
41643;SDS011;44236;48.098;11.582;2023-04-15T02:39:21;2.15;;;1.15;;
41643;SDS011;44236;48.098;11.582;2023-04-15T02:41:46;3.05;;;1.30;;
41643;SDS011;44236;48.098;11.582;2023-04-15T02:44:16;2.53;;;1.30;;
41643;SDS011;44236;48.098;11.582;2023-04-15T02:46:44;3.38;;;1.13;;
41643;SDS011;44236;48.098;11.582;2023-04-15T02:49:14;2.30;;;1.20;;
41643;SDS011;44236;48.098;11.582;2023-04-15T02:51:40;1.52;;;1.05;;
41643;SDS011;44236;48.098;11.582;2023-04-15T02:54:06;2.60;;;1.30;;
41643;SDS011;44236;48.098;11.582;2023-04-15T02:56:32;4.07;;;1.48;;
41643;SDS011;44236;48.098;11.582;2023-04-15T02:58:58;2.63;;;1.20;;
41643;SDS011;44236;48.098;11.582;2023-04-15T03:01:24;1.65;;;1.10;;
41643;SDS011;44236;48.098;11.582;2023-04-15T03:03:50;2.38;;;1.25;;
41643;SDS011;44236;48.098;11.582;2023-04-15T03:06:16;2.70;;;1.60;;
41643;SDS011;44236;48.098;11.582;2023-04-15T03:08:41;3.03;;;1.20;;
41643;SDS011;44236;48.098;11.582;2023-04-15T03:11:07;1.52;;;1.00;;
41643;SDS011;44236;48.098;11.582;2023-04-15T03:13:32;2.13;;;1.35;;
41643;SDS011;44236;48.098;11.582;2023-04-15T03:15:58;2.13;;;1.20;;
41643;SDS011;44236;48.098;11.582;2023-04-15T03:18:24;1.67;;;1.00;;
41643;SDS011;44236;48.098;11.582;2023-04-15T03:20:49;2.22;;;1.13;;
41643;SDS011;44236;48.098;11.582;2023-04-15T03:23:15;2.80;;;1.30;;
41643;SDS011;44236;48.098;11.582;2023-04-15T03:25:41;3.10;;;1.30;;
41643;SDS011;44236;48.098;11.582;2023-04-15T03:28:06;2.10;;;1.13;;
41643;SDS011;44236;48.098;11.582;2023-04-15T03:30:32;1.90;;;1.10;;
41643;SDS011;44236;48.098;11.582;2023-04-15T03:32:58;2.22;;;1.10;;
41643;SDS011;44236;48.098;11.582;2023-04-15T03:35:23;2.97;;;1.00;;
41643;SDS011;44236;48.098;11.582;2023-04-15T03:37:49;2.83;;;1.17;;
41643;SDS011;44236;48.098;11.582;2023-04-15T03:40:15;2.22;;;1.10;;
41643;SDS011;44236;48.098;11.582;2023-04-15T03:42:40;2.40;;;1.00;;
41643;SDS011;44236;48.098;11.582;2023-04-15T03:45:10;2.05;;;1.05;;
41643;SDS011;44236;48.098;11.582;2023-04-15T03:47:35;3.08;;;1.20;;
41643;SDS011;44236;48.098;11.582;2023-04-15T03:50:01;2.78;;;1.27;;
41643;SDS011;44236;48.098;11.582;2023-04-15T03:52:27;1.52;;;0.95;;
41643;SDS011;44236;48.098;11.582;2023-04-15T03:54:52;1.98;;;0.85;;
41643;SDS011;44236;48.098;11.582;2023-04-15T03:57:18;1.92;;;0.88;;
41643;SDS011;44236;48.098;11.582;2023-04-15T03:59:43;2.42;;;1.23;;
41643;SDS011;44236;48.098;11.582;2023-04-15T04:02:09;1.35;;;0.88;;
41643;SDS011;44236;48.098;11.582;2023-04-15T04:04:35;1.60;;;0.88;;
41643;SDS011;44236;48.098;11.582;2023-04-15T04:07:00;1.70;;;1.08;;
41643;SDS011;44236;48.098;11.582;2023-04-15T04:09:26;2.85;;;1.23;;
41643;SDS011;44236;48.098;11.582;2023-04-15T04:11:51;2.13;;;1.10;;
41643;SDS011;44236;48.098;11.582;2023-04-15T04:14:17;1.00;;;0.70;;
41643;SDS011;44236;48.098;11.582;2023-04-15T04:16:42;1.98;;;1.00;;
41643;SDS011;44236;48.098;11.582;2023-04-15T04:19:11;2.55;;;1.13;;
41643;SDS011;44236;48.098;11.582;2023-04-15T04:21:38;1.33;;;0.90;;
41643;SDS011;44236;48.098;11.582;2023-04-15T04:24:04;1.75;;;1.10;;
41643;SDS011;44236;48.098;11.582;2023-04-15T04:26:30;2.58;;;1.10;;
41643;SDS011;44236;48.098;11.582;2023-04-15T04:28:55;1.55;;;0.90;;
41643;SDS011;44236;48.098;11.582;2023-04-15T04:31:21;2.28;;;1.10;;
41643;SDS011;44236;48.098;11.582;2023-04-15T04:33:47;2.88;;;1.10;;
41643;SDS011;44236;48.098;11.582;2023-04-15T04:36:12;2.15;;;1.05;;
41643;SDS011;44236;48.098;11.582;2023-04-15T04:38:38;2.00;;;1.17;;
41643;SDS011;44236;48.098;11.582;2023-04-15T04:41:03;1.80;;;0.90;;
41643;SDS011;44236;48.098;11.582;2023-04-15T04:43:29;1.30;;;0.80;;
41643;SDS011;44236;48.098;11.582;2023-04-15T04:45:55;2.75;;;0.80;;
41643;SDS011;44236;48.098;11.582;2023-04-15T04:48:21;2.17;;;1.38;;
41643;SDS011;44236;48.098;11.582;2023-04-15T04:50:46;2.50;;;0.80;;
41643;SDS011;44236;48.098;11.582;2023-04-15T04:53:12;1.92;;;0.73;;
41643;SDS011;44236;48.098;11.582;2023-04-15T04:55:38;1.83;;;0.88;;
41643;SDS011;44236;48.098;11.582;2023-04-15T04:58:04;1.65;;;0.88;;
41643;SDS011;44236;48.098;11.582;2023-04-15T05:00:30;2.72;;;0.85;;
41643;SDS011;44236;48.098;11.582;2023-04-15T05:02:55;1.42;;;0.88;;
41643;SDS011;44236;48.098;11.582;2023-04-15T05:05:21;1.58;;;0.60;;
41643;SDS011;44236;48.098;11.582;2023-04-15T05:07:47;1.15;;;0.60;;
41643;SDS011;44236;48.098;11.582;2023-04-15T05:10:14;1.60;;;0.80;;
41643;SDS011;44236;48.098;11.582;2023-04-15T05:12:42;0.75;;;0.60;;
41643;SDS011;44236;48.098;11.582;2023-04-15T05:15:07;1.75;;;0.60;;
41643;SDS011;44236;48.098;11.582;2023-04-15T05:17:33;1.10;;;0.60;;
41643;SDS011;44236;48.098;11.582;2023-04-15T05:19:59;1.15;;;0.65;;
41643;SDS011;44236;48.098;11.582;2023-04-15T05:22:26;0.80;;;0.60;;
41643;SDS011;44236;48.098;11.582;2023-04-15T05:24:51;1.88;;;0.73;;
41643;SDS011;44236;48.098;11.582;2023-04-15T05:27:17;1.20;;;0.70;;
41643;SDS011;44236;48.098;11.582;2023-04-15T05:29:43;1.65;;;0.70;;
41643;SDS011;44236;48.098;11.582;2023-04-15T05:32:09;1.65;;;0.55;;
41643;SDS011;44236;48.098;11.582;2023-04-15T05:34:34;0.85;;;0.60;;
41643;SDS011;44236;48.098;11.582;2023-04-15T05:37:00;1.05;;;0.65;;
41643;SDS011;44236;48.098;11.582;2023-04-15T05:39:26;2.72;;;0.82;;
41643;SDS011;44236;48.098;11.582;2023-04-15T05:41:52;0.70;;;0.55;;
41643;SDS011;44236;48.098;11.582;2023-04-15T05:44:17;1.35;;;0.65;;
41643;SDS011;44236;48.098;11.582;2023-04-15T05:46:43;0.93;;;0.63;;
41643;SDS011;44236;48.098;11.582;2023-04-15T05:49:08;1.55;;;0.50;;
41643;SDS011;44236;48.098;11.582;2023-04-15T05:51:34;1.17;;;0.65;;
41643;SDS011;44236;48.098;11.582;2023-04-15T05:54:00;0.93;;;0.50;;
41643;SDS011;44236;48.098;11.582;2023-04-15T05:56:26;0.50;;;0.40;;
41643;SDS011;44236;48.098;11.582;2023-04-15T05:58:51;1.42;;;0.55;;
41643;SDS011;44236;48.098;11.582;2023-04-15T06:01:17;1.08;;;0.70;;
41643;SDS011;44236;48.098;11.582;2023-04-15T06:03:43;2.05;;;0.50;;
41643;SDS011;44236;48.098;11.582;2023-04-15T06:06:08;1.00;;;0.50;;
41643;SDS011;44236;48.098;11.582;2023-04-15T06:08:34;2.40;;;0.40;;
41643;SDS011;44236;48.098;11.582;2023-04-15T06:11:00;2.30;;;0.50;;
41643;SDS011;44236;48.098;11.582;2023-04-15T06:13:26;1.35;;;0.73;;
41643;SDS011;44236;48.098;11.582;2023-04-15T06:15:51;1.42;;;0.50;;
41643;SDS011;44236;48.098;11.582;2023-04-15T06:18:18;2.65;;;0.68;;
41643;SDS011;44236;48.098;11.582;2023-04-15T06:20:44;7.97;;;0.95;;
41643;SDS011;44236;48.098;11.582;2023-04-15T06:23:10;2.15;;;0.85;;
41643;SDS011;44236;48.098;11.582;2023-04-15T06:25:36;2.50;;;0.80;;
41643;SDS011;44236;48.098;11.582;2023-04-15T06:28:01;10.02;;;1.65;;
41643;SDS011;44236;48.098;11.582;2023-04-15T06:30:27;2.67;;;0.90;;
41643;SDS011;44236;48.098;11.582;2023-04-15T06:32:53;6.63;;;1.40;;
41643;SDS011;44236;48.098;11.582;2023-04-15T06:35:19;5.30;;;1.55;;
41643;SDS011;44236;48.098;11.582;2023-04-15T06:37:46;4.00;;;1.20;;
41643;SDS011;44236;48.098;11.582;2023-04-15T06:40:11;5.72;;;1.25;;
41643;SDS011;44236;48.098;11.582;2023-04-15T06:42:37;3.53;;;1.10;;
41643;SDS011;44236;48.098;11.582;2023-04-15T06:45:03;11.90;;;1.95;;
41643;SDS011;44236;48.098;11.582;2023-04-15T06:47:29;7.80;;;1.92;;
41643;SDS011;44236;48.098;11.582;2023-04-15T06:49:55;2.42;;;1.50;;
41643;SDS011;44236;48.098;11.582;2023-04-15T06:52:20;9.13;;;1.75;;
41643;SDS011;44236;48.098;11.582;2023-04-15T06:54:46;2.10;;;0.98;;
41643;SDS011;44236;48.098;11.582;2023-04-15T06:57:12;2.95;;;0.88;;
41643;SDS011;44236;48.098;11.582;2023-04-15T06:59:37;4.35;;;1.33;;
41643;SDS011;44236;48.098;11.582;2023-04-15T07:02:03;4.88;;;1.30;;
41643;SDS011;44236;48.098;11.582;2023-04-15T07:04:28;4.63;;;0.80;;
41643;SDS011;44236;48.098;11.582;2023-04-15T07:06:54;1.15;;;0.63;;
41643;SDS011;44236;48.098;11.582;2023-04-15T07:09:21;3.67;;;0.98;;
41643;SDS011;44236;48.098;11.582;2023-04-15T07:11:47;5.22;;;1.40;;
41643;SDS011;44236;48.098;11.582;2023-04-15T07:14:13;9.52;;;1.33;;
41643;SDS011;44236;48.098;11.582;2023-04-15T07:16:39;1.80;;;0.80;;
41643;SDS011;44236;48.098;11.582;2023-04-15T07:19:04;2.33;;;0.80;;
41643;SDS011;44236;48.098;11.582;2023-04-15T07:21:30;2.60;;;1.10;;
41643;SDS011;44236;48.098;11.582;2023-04-15T07:23:56;4.78;;;1.33;;
41643;SDS011;44236;48.098;11.582;2023-04-15T07:26:22;6.82;;;1.63;;
41643;SDS011;44236;48.098;11.582;2023-04-15T07:28:48;6.43;;;1.85;;
41643;SDS011;44236;48.098;11.582;2023-04-15T07:31:14;6.03;;;2.00;;
41643;SDS011;44236;48.098;11.582;2023-04-15T07:33:41;8.10;;;2.38;;
41643;SDS011;44236;48.098;11.582;2023-04-15T07:36:06;6.80;;;1.83;;
41643;SDS011;44236;48.098;11.582;2023-04-15T07:38:32;6.60;;;2.13;;
41643;SDS011;44236;48.098;11.582;2023-04-15T07:40:58;6.72;;;1.85;;
41643;SDS011;44236;48.098;11.582;2023-04-15T07:43:23;8.02;;;2.95;;
41643;SDS011;44236;48.098;11.582;2023-04-15T07:45:49;7.13;;;2.17;;
41643;SDS011;44236;48.098;11.582;2023-04-15T07:48:15;8.75;;;2.38;;
41643;SDS011;44236;48.098;11.582;2023-04-15T07:50:40;5.38;;;1.38;;
41643;SDS011;44236;48.098;11.582;2023-04-15T07:53:06;7.35;;;2.00;;
41643;SDS011;44236;48.098;11.582;2023-04-15T07:55:32;7.82;;;1.75;;
41643;SDS011;44236;48.098;11.582;2023-04-15T07:57:58;9.52;;;2.33;;
41643;SDS011;44236;48.098;11.582;2023-04-15T08:00:23;3.97;;;1.52;;
41643;SDS011;44236;48.098;11.582;2023-04-15T08:02:50;5.63;;;1.75;;
41643;SDS011;44236;48.098;11.582;2023-04-15T08:05:17;3.92;;;1.40;;
41643;SDS011;44236;48.098;11.582;2023-04-15T08:07:43;2.50;;;1.10;;
41643;SDS011;44236;48.098;11.582;2023-04-15T08:10:10;2.60;;;1.20;;
41643;SDS011;44236;48.098;11.582;2023-04-15T08:12:36;13.68;;;2.90;;
41643;SDS011;44236;48.098;11.582;2023-04-15T08:15:02;5.05;;;1.58;;
41643;SDS011;44236;48.098;11.582;2023-04-15T08:17:28;5.78;;;2.10;;
41643;SDS011;44236;48.098;11.582;2023-04-15T08:19:53;6.55;;;1.55;;
41643;SDS011;44236;48.098;11.582;2023-04-15T08:22:19;6.28;;;1.85;;
41643;SDS011;44236;48.098;11.582;2023-04-15T08:24:44;4.53;;;1.90;;
41643;SDS011;44236;48.098;11.582;2023-04-15T08:27:10;6.95;;;2.28;;
41643;SDS011;44236;48.098;11.582;2023-04-15T08:29:36;3.80;;;1.30;;
41643;SDS011;44236;48.098;11.582;2023-04-15T08:32:01;11.52;;;1.35;;
41643;SDS011;44236;48.098;11.582;2023-04-15T08:34:28;7.03;;;1.20;;
41643;SDS011;44236;48.098;11.582;2023-04-15T08:36:54;5.90;;;1.30;;
41643;SDS011;44236;48.098;11.582;2023-04-15T08:39:19;11.13;;;2.00;;
41643;SDS011;44236;48.098;11.582;2023-04-15T08:41:46;2.97;;;0.90;;
41643;SDS011;44236;48.098;11.582;2023-04-15T08:44:15;5.88;;;1.20;;
41643;SDS011;44236;48.098;11.582;2023-04-15T08:46:42;9.38;;;1.27;;
41643;SDS011;44236;48.098;11.582;2023-04-15T08:49:11;4.50;;;1.45;;
41643;SDS011;44236;48.098;11.582;2023-04-15T08:51:40;5.18;;;1.13;;
41643;SDS011;44236;48.098;11.582;2023-04-15T08:54:09;6.28;;;0.73;;
41643;SDS011;44236;48.098;11.582;2023-04-15T08:56:35;6.50;;;1.58;;
41643;SDS011;44236;48.098;11.582;2023-04-15T08:59:01;5.30;;;1.95;;
41643;SDS011;44236;48.098;11.582;2023-04-15T09:01:27;7.25;;;1.88;;
41643;SDS011;44236;48.098;11.582;2023-04-15T09:03:53;8.18;;;2.90;;
41643;SDS011;44236;48.098;11.582;2023-04-15T09:06:21;4.60;;;1.55;;
41643;SDS011;44236;48.098;11.582;2023-04-15T09:08:46;3.30;;;1.95;;
41643;SDS011;44236;48.098;11.582;2023-04-15T09:11:13;6.88;;;2.05;;
41643;SDS011;44236;48.098;11.582;2023-04-15T09:13:38;15.70;;;2.30;;
41643;SDS011;44236;48.098;11.582;2023-04-15T09:16:04;5.97;;;1.77;;
41643;SDS011;44236;48.098;11.582;2023-04-15T09:18:33;4.75;;;1.73;;
41643;SDS011;44236;48.098;11.582;2023-04-15T09:21:06;4.85;;;1.80;;
41643;SDS011;44236;48.098;11.582;2023-04-15T09:23:33;4.75;;;1.45;;
41643;SDS011;44236;48.098;11.582;2023-04-15T09:26:00;4.53;;;1.50;;
41643;SDS011;44236;48.098;11.582;2023-04-15T09:28:27;4.93;;;1.45;;
41643;SDS011;44236;48.098;11.582;2023-04-15T09:30:57;5.95;;;2.13;;
41643;SDS011;44236;48.098;11.582;2023-04-15T09:33:24;8.55;;;3.05;;
41643;SDS011;44236;48.098;11.582;2023-04-15T09:36:11;6.75;;;2.13;;
41643;SDS011;44236;48.098;11.582;2023-04-15T09:38:36;5.47;;;2.22;;
41643;SDS011;44236;48.098;11.582;2023-04-15T09:41:22;9.65;;;2.33;;
41643;SDS011;44236;48.098;11.582;2023-04-15T09:43:48;6.20;;;1.50;;
41643;SDS011;44236;48.098;11.582;2023-04-15T09:46:14;4.15;;;1.65;;
41643;SDS011;44236;48.098;11.582;2023-04-15T09:48:40;9.10;;;2.22;;
41643;SDS011;44236;48.098;11.582;2023-04-15T09:51:05;5.15;;;1.92;;
41643;SDS011;44236;48.098;11.582;2023-04-15T09:53:32;3.83;;;1.70;;
41643;SDS011;44236;48.098;11.582;2023-04-15T09:55:59;4.82;;;2.00;;
41643;SDS011;44236;48.098;11.582;2023-04-15T09:58:27;2.35;;;0.85;;
41643;SDS011;44236;48.098;11.582;2023-04-15T10:00:54;10.98;;;1.88;;
41643;SDS011;44236;48.098;11.582;2023-04-15T10:03:25;5.03;;;1.00;;
41643;SDS011;44236;48.098;11.582;2023-04-15T10:05:53;3.53;;;1.02;;
41643;SDS011;44236;48.098;11.582;2023-04-15T10:08:21;3.42;;;1.10;;
41643;SDS011;44236;48.098;11.582;2023-04-15T10:10:49;2.08;;;0.90;;
41643;SDS011;44236;48.098;11.582;2023-04-15T10:13:19;1.58;;;1.00;;
41643;SDS011;44236;48.098;11.582;2023-04-15T10:15:57;3.58;;;1.00;;
41643;SDS011;44236;48.098;11.582;2023-04-15T10:18:25;2.08;;;0.90;;
41643;SDS011;44236;48.098;11.582;2023-04-15T10:20:52;3.17;;;0.80;;
41643;SDS011;44236;48.098;11.582;2023-04-15T10:23:18;4.47;;;1.27;;
41643;SDS011;44236;48.098;11.582;2023-04-15T10:25:45;2.03;;;0.90;;
41643;SDS011;44236;48.098;11.582;2023-04-15T10:28:13;3.97;;;1.30;;
41643;SDS011;44236;48.098;11.582;2023-04-15T10:30:39;1.50;;;0.80;;
41643;SDS011;44236;48.098;11.582;2023-04-15T10:33:06;5.00;;;1.65;;
41643;SDS011;44236;48.098;11.582;2023-04-15T10:35:35;3.03;;;0.80;;
41643;SDS011;44236;48.098;11.582;2023-04-15T10:38:01;2.42;;;1.08;;
41643;SDS011;44236;48.098;11.582;2023-04-15T10:40:40;2.47;;;1.00;;
41643;SDS011;44236;48.098;11.582;2023-04-15T10:43:06;1.90;;;0.57;;
41643;SDS011;44236;48.098;11.582;2023-04-15T10:45:48;1.58;;;0.77;;
41643;SDS011;44236;48.098;11.582;2023-04-15T10:48:14;1.60;;;1.13;;
41643;SDS011;44236;48.098;11.582;2023-04-15T10:50:42;2.97;;;0.80;;
41643;SDS011;44236;48.098;11.582;2023-04-15T10:53:27;2.10;;;0.80;;
41643;SDS011;44236;48.098;11.582;2023-04-15T10:55:54;1.80;;;0.90;;
41643;SDS011;44236;48.098;11.582;2023-04-15T10:58:22;1.65;;;0.60;;
41643;SDS011;44236;48.098;11.582;2023-04-15T11:00:49;1.92;;;0.60;;
41643;SDS011;44236;48.098;11.582;2023-04-15T11:03:20;0.75;;;0.55;;
41643;SDS011;44236;48.098;11.582;2023-04-15T11:06:03;1.60;;;0.77;;
41643;SDS011;44236;48.098;11.582;2023-04-15T11:11:23;3.00;;;1.23;;
41643;SDS011;44236;48.098;11.582;2023-04-15T11:14:07;0.63;;;0.52;;
41643;SDS011;44236;48.098;11.582;2023-04-15T11:16:43;1.00;;;0.70;;
41643;SDS011;44236;48.098;11.582;2023-04-15T11:19:09;2.30;;;0.80;;
41643;SDS011;44236;48.098;11.582;2023-04-15T11:21:34;0.77;;;0.50;;
41643;SDS011;44236;48.098;11.582;2023-04-15T11:24:00;0.65;;;0.50;;
41643;SDS011;44236;48.098;11.582;2023-04-15T11:26:26;1.27;;;0.60;;
41643;SDS011;44236;48.098;11.582;2023-04-15T11:28:51;1.00;;;0.50;;
41643;SDS011;44236;48.098;11.582;2023-04-15T11:31:18;1.02;;;0.70;;
41643;SDS011;44236;48.098;11.582;2023-04-15T11:33:45;1.73;;;0.60;;
41643;SDS011;44236;48.098;11.582;2023-04-15T11:36:17;1.33;;;0.70;;
41643;SDS011;44236;48.098;11.582;2023-04-15T11:38:43;2.90;;;0.80;;
41643;SDS011;44236;48.098;11.582;2023-04-15T11:41:11;0.93;;;0.60;;
41643;SDS011;44236;48.098;11.582;2023-04-15T11:43:37;5.13;;;1.48;;
41643;SDS011;44236;48.098;11.582;2023-04-15T11:46:02;9.90;;;2.10;;
41643;SDS011;44236;48.098;11.582;2023-04-15T11:48:30;5.68;;;2.80;;
41643;SDS011;44236;48.098;11.582;2023-04-15T11:53:34;7.72;;;2.42;;
41643;SDS011;44236;48.098;11.582;2023-04-15T11:56:15;5.75;;;2.55;;
41643;SDS011;44236;48.098;11.582;2023-04-15T11:58:42;5.97;;;1.90;;
41643;SDS011;44236;48.098;11.582;2023-04-15T12:01:10;7.57;;;1.83;;
41643;SDS011;44236;48.098;11.582;2023-04-15T12:03:40;4.60;;;1.60;;
41643;SDS011;44236;48.098;11.582;2023-04-15T12:14:25;2.90;;;1.20;;
41643;SDS011;44236;48.098;11.582;2023-04-15T12:17:00;4.77;;;1.40;;
41643;SDS011;44236;48.098;11.582;2023-04-15T12:19:34;2.83;;;0.90;;
41643;SDS011;44236;48.098;11.582;2023-04-15T12:22:02;4.15;;;1.00;;
41643;SDS011;44236;48.098;11.582;2023-04-15T12:24:31;1.55;;;1.05;;
41643;SDS011;44236;48.098;11.582;2023-04-15T12:27:01;3.05;;;1.00;;
41643;SDS011;44236;48.098;11.582;2023-04-15T12:29:32;2.88;;;0.98;;
41643;SDS011;44236;48.098;11.582;2023-04-15T12:32:05;9.90;;;2.10;;
41643;SDS011;44236;48.098;11.582;2023-04-15T12:34:36;1.55;;;0.85;;
41643;SDS011;44236;48.098;11.582;2023-04-15T12:37:07;1.92;;;0.60;;
41643;SDS011;44236;48.098;11.582;2023-04-15T12:39:34;4.03;;;0.93;;
41643;SDS011;44236;48.098;11.582;2023-04-15T12:42:02;2.25;;;0.80;;
41643;SDS011;44236;48.098;11.582;2023-04-15T12:44:29;1.33;;;0.85;;
41643;SDS011;44236;48.098;11.582;2023-04-15T12:46:55;2.65;;;1.05;;
41643;SDS011;44236;48.098;11.582;2023-04-15T12:49:20;2.50;;;0.85;;
41643;SDS011;44236;48.098;11.582;2023-04-15T12:51:47;2.88;;;0.80;;
41643;SDS011;44236;48.098;11.582;2023-04-15T12:54:18;1.70;;;0.93;;
41643;SDS011;44236;48.098;11.582;2023-04-15T12:56:44;2.45;;;0.90;;
41643;SDS011;44236;48.098;11.582;2023-04-15T12:59:11;2.78;;;1.02;;
41643;SDS011;44236;48.098;11.582;2023-04-15T13:01:37;4.70;;;0.98;;
41643;SDS011;44236;48.098;11.582;2023-04-15T13:04:03;2.25;;;0.82;;
41643;SDS011;44236;48.098;11.582;2023-04-15T13:06:29;2.65;;;0.80;;
41643;SDS011;44236;48.098;11.582;2023-04-15T13:08:57;1.48;;;0.73;;
41643;SDS011;44236;48.098;11.582;2023-04-15T13:11:23;2.83;;;0.77;;
41643;SDS011;44236;48.098;11.582;2023-04-15T13:13:49;1.27;;;0.70;;
41643;SDS011;44236;48.098;11.582;2023-04-15T13:16:16;1.42;;;0.88;;
41643;SDS011;44236;48.098;11.582;2023-04-15T13:18:42;2.45;;;1.10;;
41643;SDS011;44236;48.098;11.582;2023-04-15T13:21:09;3.33;;;1.00;;
41643;SDS011;44236;48.098;11.582;2023-04-15T13:23:36;3.20;;;0.88;;
41643;SDS011;44236;48.098;11.582;2023-04-15T13:26:01;4.30;;;0.90;;
41643;SDS011;44236;48.098;11.582;2023-04-15T13:28:27;2.60;;;0.93;;
41643;SDS011;44236;48.098;11.582;2023-04-15T13:30:53;1.50;;;0.75;;
41643;SDS011;44236;48.098;11.582;2023-04-15T13:33:18;6.07;;;1.30;;
41643;SDS011;44236;48.098;11.582;2023-04-15T13:35:44;2.45;;;1.00;;
41643;SDS011;44236;48.098;11.582;2023-04-15T13:38:10;2.95;;;1.23;;
41643;SDS011;44236;48.098;11.582;2023-04-15T13:40:38;2.83;;;0.80;;
41643;SDS011;44236;48.098;11.582;2023-04-15T13:43:04;3.65;;;0.95;;
41643;SDS011;44236;48.098;11.582;2023-04-15T13:45:30;2.97;;;0.95;;
41643;SDS011;44236;48.098;11.582;2023-04-15T13:47:55;3.25;;;1.10;;
41643;SDS011;44236;48.098;11.582;2023-04-15T13:50:21;2.70;;;0.70;;
41643;SDS011;44236;48.098;11.582;2023-04-15T13:52:47;1.92;;;0.88;;
41643;SDS011;44236;48.098;11.582;2023-04-15T13:55:12;1.52;;;0.80;;
41643;SDS011;44236;48.098;11.582;2023-04-15T13:57:38;4.30;;;0.90;;
41643;SDS011;44236;48.098;11.582;2023-04-15T14:00:04;2.13;;;0.98;;
41643;SDS011;44236;48.098;11.582;2023-04-15T14:02:30;2.47;;;1.30;;
41643;SDS011;44236;48.098;11.582;2023-04-15T14:04:56;3.35;;;1.10;;
41643;SDS011;44236;48.098;11.582;2023-04-15T14:07:22;2.17;;;0.88;;
41643;SDS011;44236;48.098;11.582;2023-04-15T14:09:47;2.90;;;0.90;;
41643;SDS011;44236;48.098;11.582;2023-04-15T14:12:13;1.65;;;0.70;;
41643;SDS011;44236;48.098;11.582;2023-04-15T14:14:39;2.30;;;0.88;;
41643;SDS011;44236;48.098;11.582;2023-04-15T14:17:05;2.63;;;0.90;;
41643;SDS011;44236;48.098;11.582;2023-04-15T14:19:31;2.65;;;1.10;;
41643;SDS011;44236;48.098;11.582;2023-04-15T14:21:57;2.70;;;0.98;;
41643;SDS011;44236;48.098;11.582;2023-04-15T14:24:23;2.65;;;0.80;;
41643;SDS011;44236;48.098;11.582;2023-04-15T14:26:48;3.55;;;0.70;;
41643;SDS011;44236;48.098;11.582;2023-04-15T14:29:14;3.38;;;0.70;;
41643;SDS011;44236;48.098;11.582;2023-04-15T14:31:40;2.70;;;1.02;;
41643;SDS011;44236;48.098;11.582;2023-04-15T14:34:08;5.18;;;1.60;;
41643;SDS011;44236;48.098;11.582;2023-04-15T14:36:34;3.20;;;0.88;;
41643;SDS011;44236;48.098;11.582;2023-04-15T14:38:59;1.70;;;0.75;;
41643;SDS011;44236;48.098;11.582;2023-04-15T14:41:25;2.42;;;0.80;;
41643;SDS011;44236;48.098;11.582;2023-04-15T14:43:51;2.58;;;0.80;;